createdAt,value
2019-04-04T00:02:17.111Z,34.60
2019-04-04T00:04:48.320Z,34.50
2019-04-04T00:07:18.662Z,34.60
2019-04-04T00:09:49.083Z,34.60
2019-04-04T00:12:19.352Z,34.70
2019-04-04T00:14:49.746Z,34.70
2019-04-04T00:17:22.896Z,34.90
2019-04-04T00:19:52.069Z,34.90
2019-04-04T00:22:22.461Z,35.00
2019-04-04T00:24:52.922Z,35.00
2019-04-04T00:27:23.309Z,35.10
2019-04-04T00:29:53.867Z,35.20
2019-04-04T00:32:24.280Z,35.20
2019-04-04T00:34:54.732Z,35.20
2019-04-04T00:37:25.115Z,35.40
2019-04-04T00:39:56.509Z,35.40
2019-04-04T00:42:26.927Z,35.40
2019-04-04T00:44:57.224Z,35.40
2019-04-04T00:47:27.573Z,35.60
2019-04-04T00:49:57.828Z,35.60
2019-04-04T00:52:28.068Z,35.80
2019-04-04T00:54:59.289Z,35.80
2019-04-04T00:57:29.441Z,35.80
2019-04-04T01:00:00.040Z,35.90
2019-04-04T01:02:30.508Z,36.00
2019-04-04T01:05:02.270Z,36.00
2019-04-04T01:07:33.941Z,36.10
2019-04-04T01:10:05.651Z,36.00
2019-04-04T01:12:36.305Z,36.10
2019-04-04T01:15:07.572Z,36.10
2019-04-04T01:17:38.076Z,36.20
2019-04-04T01:20:10.052Z,36.20
2019-04-04T01:22:44.888Z,36.20
2019-04-04T01:25:15.355Z,36.50
2019-04-04T01:27:45.887Z,36.40
2019-04-04T01:30:16.637Z,36.30
2019-04-04T01:32:48.225Z,36.50
2019-04-04T01:35:22.516Z,36.50
2019-04-04T01:37:51.293Z,36.40
2019-04-04T01:40:21.605Z,36.40
2019-04-04T01:42:52.063Z,36.50
2019-04-04T01:45:22.413Z,36.60
2019-04-04T01:47:52.781Z,36.60
2019-04-04T01:50:23.365Z,36.50
2019-04-04T01:52:54.007Z,36.50
2019-04-04T01:55:24.380Z,36.50
2019-04-04T01:57:54.803Z,36.50
2019-04-04T02:00:25.207Z,37.30
2019-04-04T02:02:55.690Z,36.50
2019-04-04T02:05:27.070Z,36.40
2019-04-04T02:07:58.864Z,36.50
2019-04-04T02:10:30.615Z,36.40
2019-04-04T02:13:01.068Z,36.30
2019-04-04T02:15:31.780Z,36.40
2019-04-04T02:18:02.477Z,36.30
2019-04-04T02:20:34.371Z,36.30
2019-04-04T02:23:05.128Z,36.40
2019-04-04T02:25:35.633Z,36.30
2019-04-04T02:28:06.949Z,36.30
2019-04-04T02:30:38.307Z,36.30
2019-04-04T02:33:08.738Z,36.30
2019-04-04T02:35:42.742Z,36.30
2019-04-04T02:38:11.385Z,36.20
2019-04-04T02:40:42.297Z,36.20
2019-04-04T02:43:12.717Z,36.40
2019-04-04T02:45:43.140Z,36.30
2019-04-04T02:48:13.874Z,36.20
2019-04-04T02:50:44.379Z,36.20
2019-04-04T02:53:19.415Z,36.20
2019-04-04T02:55:46.916Z,36.20
2019-04-04T02:58:17.270Z,36.20
2019-04-04T03:00:47.790Z,36.20
2019-04-04T03:03:18.266Z,36.20
2019-04-04T03:05:51.961Z,36.20
2019-04-04T03:08:20.618Z,36.20
2019-04-04T03:10:51.044Z,36.20
2019-04-04T03:13:21.469Z,36.30
2019-04-04T03:15:52.492Z,36.30
2019-04-04T03:18:22.906Z,36.30
2019-04-04T03:20:53.372Z,36.30
2019-04-04T03:23:23.678Z,36.40
2019-04-04T03:25:54.037Z,36.40
2019-04-04T03:28:25.988Z,36.50
2019-04-04T03:31:02.360Z,36.40
2019-04-04T03:33:31.363Z,36.40
2019-04-04T03:36:01.318Z,36.40
2019-04-04T03:38:31.975Z,36.40
2019-04-04T03:41:02.544Z,36.50
2019-04-04T03:43:32.997Z,36.60
2019-04-04T03:46:03.461Z,36.60
2019-04-04T03:48:33.998Z,36.70
2019-04-04T03:51:05.231Z,36.70
2019-04-04T03:53:38.089Z,36.80
2019-04-04T03:56:08.406Z,36.80
2019-04-04T03:58:39.023Z,36.80
2019-04-04T04:01:11.940Z,36.80
2019-04-04T04:03:41.717Z,36.90
2019-04-04T04:06:12.067Z,37.00
2019-04-04T04:08:42.900Z,37.00
2019-04-04T04:11:13.525Z,37.00
2019-04-04T04:13:48.925Z,37.00
2019-04-04T04:16:16.251Z,37.00
2019-04-04T04:18:46.606Z,37.10
2019-04-04T04:21:16.998Z,37.10
2019-04-04T04:23:49.904Z,37.20
2019-04-04T04:26:20.422Z,37.30
2019-04-04T04:28:53.218Z,37.20
2019-04-04T04:31:22.739Z,37.40
2019-04-04T04:33:52.999Z,37.40
2019-04-04T04:36:23.388Z,37.50
2019-04-04T04:38:58.859Z,37.50
2019-04-04T04:41:26.572Z,37.60
2019-04-04T04:43:56.887Z,37.60
2019-04-04T04:46:27.218Z,37.60
2019-04-04T04:48:57.631Z,37.70
2019-04-04T04:51:28.004Z,37.80
2019-04-04T04:53:58.493Z,37.80
2019-04-04T04:56:30.934Z,37.90
2019-04-04T04:59:00.896Z,38.00
2019-04-04T05:01:31.409Z,38.00
2019-04-04T05:04:02.685Z,38.00
2019-04-04T05:06:35.573Z,38.10
2019-04-04T05:09:07.215Z,37.80
2019-04-04T05:11:37.944Z,37.90
2019-04-04T05:14:08.766Z,38.00
2019-04-04T05:16:39.390Z,38.10
2019-04-04T05:19:10.104Z,38.30
2019-04-04T05:21:40.718Z,38.40
2019-04-04T05:24:11.396Z,39.20
2019-04-04T05:26:43.126Z,38.50
2019-04-04T05:29:14.157Z,38.60
2019-04-04T05:31:44.870Z,38.70
2019-04-04T05:34:15.313Z,38.70
2019-04-04T05:36:46.026Z,38.90
2019-04-04T05:39:18.104Z,38.90
2019-04-04T05:41:48.822Z,38.80
2019-04-04T05:44:19.593Z,38.80
2019-04-04T05:46:51.947Z,38.90
2019-04-04T05:49:22.352Z,38.90
2019-04-04T05:51:53.116Z,38.90
2019-04-04T05:54:23.476Z,38.90
2019-04-04T05:57:04.439Z,38.90
2019-04-04T05:59:35.801Z,38.90
2019-04-04T06:02:06.342Z,39.00
2019-04-04T06:04:36.969Z,38.90
2019-04-04T06:07:07.907Z,39.10
2019-04-04T06:09:38.309Z,39.60
2019-04-04T06:12:09.010Z,39.00
2019-04-04T06:14:39.673Z,39.00
2019-04-04T06:17:10.317Z,39.00
2019-04-04T06:19:41.033Z,38.90
2019-04-04T06:22:11.452Z,38.90
2019-04-04T06:24:42.392Z,38.80
2019-04-04T06:27:13.273Z,38.80
2019-04-04T06:29:43.953Z,38.90
2019-04-04T06:32:14.496Z,38.80
2019-04-04T06:34:45.310Z,38.70
2019-04-04T06:37:18.000Z,38.80
2019-04-04T06:39:48.323Z,38.70
2019-04-04T06:42:18.949Z,38.70
2019-04-04T06:44:49.477Z,38.60
2019-04-04T06:47:19.921Z,38.60
2019-04-04T06:49:50.753Z,38.60
2019-04-04T06:52:23.471Z,38.60
2019-04-04T06:54:57.069Z,38.60
2019-04-04T06:57:25.554Z,38.50
2019-04-04T06:59:55.809Z,38.40
2019-04-04T07:02:26.291Z,38.30
2019-04-04T07:04:58.066Z,38.30
2019-04-04T07:07:28.982Z,38.40
2019-04-04T07:09:59.691Z,38.30
2019-04-04T07:12:30.267Z,38.60
2019-04-04T07:15:01.197Z,38.30
2019-04-04T07:17:33.226Z,38.10
2019-04-04T07:20:03.585Z,38.00
2019-04-04T07:22:34.129Z,38.70
2019-04-04T07:25:06.647Z,37.90
2019-04-04T07:27:38.993Z,37.80
2019-04-04T07:30:09.361Z,37.70
2019-04-04T07:32:41.577Z,37.70
2019-04-04T07:35:11.311Z,37.60
2019-04-04T07:37:41.780Z,37.40
2019-04-04T07:40:12.729Z,37.30
2019-04-04T07:42:47.060Z,37.10
2019-04-04T07:45:15.305Z,37.20
2019-04-04T07:47:47.426Z,37.70
2019-04-04T07:50:26.276Z,37.00
2019-04-04T07:52:56.467Z,37.10
2019-04-04T07:55:26.764Z,36.90
2019-04-04T07:57:57.190Z,36.80
2019-04-04T08:00:27.486Z,36.70
2019-04-04T08:02:57.965Z,36.60
2019-04-04T08:05:28.340Z,36.50
2019-04-04T08:07:58.651Z,36.40
2019-04-04T08:10:28.934Z,36.50
2019-04-04T08:12:59.438Z,36.30
2019-04-04T08:15:29.745Z,36.30
2019-04-04T08:18:00.079Z,36.20
2019-04-04T08:20:30.442Z,36.20
2019-04-04T08:23:00.694Z,36.20
2019-04-04T08:25:30.999Z,36.00
2019-04-04T08:28:01.342Z,35.90
2019-04-04T08:30:31.722Z,35.70
2019-04-04T08:33:02.152Z,35.50
2019-04-04T08:35:32.605Z,35.60
2019-04-04T08:38:02.893Z,36.30
2019-04-04T08:40:33.371Z,35.40
2019-04-04T08:43:03.842Z,35.50
2019-04-04T08:45:34.150Z,35.40
2019-04-04T08:48:04.739Z,35.20
2019-04-04T08:50:35.053Z,35.20
2019-04-04T08:53:05.508Z,35.40
2019-04-04T08:55:37.348Z,35.40
2019-04-04T08:58:08.004Z,35.00
2019-04-04T09:00:38.807Z,35.00
2019-04-04T09:03:10.797Z,34.70
2019-04-04T09:05:41.320Z,34.50
2019-04-04T09:08:11.749Z,34.40
2019-04-04T09:10:42.403Z,34.00
2019-04-04T09:13:12.984Z,33.90
2019-04-04T09:15:46.785Z,33.90
2019-04-04T09:18:17.347Z,33.60
2019-04-04T09:20:48.164Z,33.50
2019-04-04T09:23:18.790Z,33.40
2019-04-04T09:25:49.426Z,33.20
2019-04-04T09:28:20.665Z,33.00
2019-04-04T09:30:51.144Z,32.90
2019-04-04T09:33:21.937Z,32.70
2019-04-04T09:35:52.445Z,32.60
2019-04-04T09:38:23.147Z,32.50
2019-04-04T09:40:54.687Z,32.40
2019-04-04T09:43:25.068Z,32.20
2019-04-04T09:45:56.033Z,32.60
2019-04-04T09:48:26.576Z,32.30
2019-04-04T09:50:57.364Z,32.10
2019-04-04T09:53:28.008Z,31.90
2019-04-04T09:55:58.603Z,31.70
2019-04-04T09:58:29.692Z,31.70
2019-04-04T10:01:00.234Z,31.40
2019-04-04T10:03:30.834Z,31.40
2019-04-04T10:06:02.078Z,31.30
2019-04-04T10:08:32.634Z,31.20
2019-04-04T10:11:03.733Z,31.20
2019-04-04T10:13:34.531Z,30.90
2019-04-04T10:16:05.417Z,30.80
2019-04-04T10:18:36.513Z,30.40
2019-04-04T10:21:12.307Z,30.10
2019-04-04T10:23:41.170Z,30.10
2019-04-04T10:26:11.961Z,29.90
2019-04-04T10:28:43.073Z,29.80
2019-04-04T10:31:13.808Z,29.60
2019-04-04T10:33:44.559Z,29.50
2019-04-04T10:36:15.349Z,29.40
2019-04-04T10:38:46.281Z,29.20
2019-04-04T10:41:16.892Z,29.30
2019-04-04T10:43:49.280Z,29.50
2019-04-04T10:46:20.178Z,29.30
2019-04-04T10:48:50.820Z,29.10
2019-04-04T10:51:21.539Z,29.20
2019-04-04T10:53:52.317Z,29.00
2019-04-04T10:56:22.812Z,29.00
2019-04-04T10:58:53.148Z,29.30
2019-04-04T11:01:23.694Z,29.30
2019-04-04T11:03:54.246Z,28.40
2019-04-04T11:06:24.776Z,28.40
2019-04-04T11:08:55.465Z,28.30
2019-04-04T11:11:25.933Z,28.10
2019-04-04T11:13:56.761Z,27.90
2019-04-04T11:16:30.349Z,27.90
2019-04-04T11:18:59.689Z,27.20
2019-04-04T11:21:30.417Z,27.60
2019-04-04T11:24:01.023Z,27.40
2019-04-04T11:26:31.941Z,27.50
2019-04-04T11:29:02.593Z,27.20
2019-04-04T11:31:33.298Z,27.30
2019-04-04T11:34:04.004Z,27.50
2019-04-04T11:36:34.811Z,27.20
2019-04-04T11:39:06.555Z,27.10
2019-04-04T11:41:37.344Z,27.00
2019-04-04T11:44:08.090Z,26.90
2019-04-04T11:46:38.809Z,26.90
2019-04-04T11:49:09.294Z,27.00
2019-04-04T11:51:39.890Z,27.10
2019-04-04T11:54:10.397Z,27.10
2019-04-04T11:56:40.581Z,27.10
2019-04-04T11:59:11.387Z,27.10
2019-04-04T12:01:42.991Z,27.20
2019-04-04T12:04:13.902Z,27.20
2019-04-04T12:06:44.712Z,27.20
2019-04-04T12:09:15.179Z,27.20
2019-04-04T12:11:46.037Z,27.20
2019-04-04T12:14:16.681Z,27.40
2019-04-04T12:16:47.358Z,27.30
2019-04-04T12:19:17.974Z,27.30
2019-04-04T12:21:48.738Z,27.60
2019-04-04T12:24:19.479Z,27.40
2019-04-04T12:26:50.348Z,27.20
2019-04-04T12:29:22.172Z,27.10
2019-04-04T12:31:52.912Z,27.20
2019-04-04T12:34:23.598Z,27.70
2019-04-04T12:36:54.213Z,27.20
2019-04-04T12:39:24.805Z,27.20
2019-04-04T12:41:55.629Z,27.30
2019-04-04T12:44:26.128Z,27.10
2019-04-04T12:46:57.001Z,27.00
2019-04-04T12:49:27.791Z,27.00
2019-04-04T12:51:58.236Z,27.00
2019-04-04T12:54:28.867Z,26.90
2019-04-04T12:57:00.582Z,27.00
2019-04-04T12:59:31.736Z,27.10
2019-04-04T13:02:02.288Z,27.20
2019-04-04T13:04:32.987Z,27.30
2019-04-04T13:07:03.595Z,27.50
2019-04-04T13:09:34.630Z,27.50
2019-04-04T13:12:05.162Z,27.50
2019-04-04T13:14:35.971Z,27.40
2019-04-04T13:17:06.750Z,27.30
2019-04-04T13:19:37.433Z,27.20
2019-04-04T13:22:09.269Z,27.20
2019-04-04T13:24:39.849Z,27.10
2019-04-04T13:27:10.572Z,27.10
2019-04-04T13:29:42.129Z,27.20
2019-04-04T13:32:12.764Z,27.30
2019-04-04T13:34:43.344Z,27.20
2019-04-04T13:37:15.194Z,27.20
2019-04-04T13:39:45.940Z,27.30
2019-04-04T13:42:16.718Z,27.30
2019-04-04T13:44:47.465Z,27.40
2019-04-04T13:47:18.211Z,27.40
2019-04-04T13:49:49.042Z,27.50
2019-04-04T13:52:19.720Z,27.40
2019-04-04T13:54:50.204Z,27.50
2019-04-04T13:57:21.098Z,27.60
2019-04-04T13:59:51.789Z,27.60
2019-04-04T14:02:22.277Z,27.60
2019-04-04T14:04:55.378Z,27.60
2019-04-04T14:07:25.505Z,27.70
2019-04-04T14:09:56.248Z,27.70
2019-04-04T14:12:29.223Z,27.80
2019-04-04T14:14:58.930Z,27.60
2019-04-04T14:17:29.565Z,27.50
2019-04-04T14:20:00.155Z,27.50
2019-04-04T14:22:30.571Z,27.40
2019-04-04T14:25:00.966Z,27.40
2019-04-04T14:27:31.399Z,27.30
2019-04-04T14:30:01.704Z,27.20
2019-04-04T14:32:32.141Z,27.30
2019-04-04T14:35:02.513Z,27.20
2019-04-04T14:37:32.926Z,27.20
2019-04-04T14:40:03.431Z,27.20
2019-04-04T14:42:34.173Z,27.20
2019-04-04T14:45:06.530Z,27.20
2019-04-04T14:47:36.708Z,27.30
2019-04-04T14:50:07.919Z,27.20
2019-04-04T14:52:39.537Z,27.30
2019-04-04T14:55:10.211Z,27.30
2019-04-04T14:57:40.577Z,27.30
2019-04-04T15:00:15.488Z,27.40
2019-04-04T15:02:44.595Z,27.50
2019-04-04T15:05:15.048Z,27.60
2019-04-04T15:07:45.866Z,27.90
2019-04-04T15:10:16.605Z,28.00
2019-04-04T15:12:50.253Z,27.90
2019-04-04T15:15:20.659Z,28.00
2019-04-04T15:17:51.110Z,28.00
2019-04-04T15:29:41.861Z,28.10
2019-04-04T15:39:45.414Z,27.70
2019-04-04T15:49:49.093Z,27.60
2019-04-04T15:59:53.272Z,27.60
2019-04-04T16:09:56.290Z,27.70
2019-04-04T16:19:59.319Z,27.90
2019-04-04T16:30:02.422Z,28.00
2019-04-04T16:40:09.379Z,28.10
2019-04-04T16:50:11.444Z,28.20
2019-04-04T17:00:14.542Z,28.40
2019-04-04T17:10:17.574Z,28.40
2019-04-04T17:20:22.231Z,28.50
2019-04-04T17:30:25.394Z,28.50
2019-04-04T17:40:28.376Z,28.60
2019-04-04T17:50:31.393Z,28.60
2019-04-04T18:00:34.976Z,28.70
2019-04-04T18:10:38.350Z,28.80
2019-04-04T18:20:41.402Z,28.90
2019-04-04T18:30:44.402Z,29.10
2019-04-04T18:40:47.406Z,29.20
2019-04-04T18:50:51.207Z,29.30
2019-04-04T19:00:54.289Z,29.40
2019-04-04T19:10:58.009Z,29.40
2019-04-04T19:21:01.463Z,29.60
2019-04-04T19:31:05.810Z,29.60
2019-04-04T19:41:08.858Z,29.70
2019-04-04T19:51:11.995Z,29.80
2019-04-04T20:01:17.156Z,30.00
2019-04-04T20:11:21.040Z,30.00
2019-04-04T20:21:24.164Z,30.10
2019-04-04T20:31:27.441Z,30.20
2019-04-04T20:41:31.222Z,30.20
2019-04-04T20:51:34.615Z,30.30
2019-04-04T21:01:37.929Z,30.40
2019-04-04T21:11:41.245Z,30.40
2019-04-04T21:21:44.569Z,30.40
2019-04-04T21:31:48.357Z,30.50
2019-04-04T21:41:51.542Z,30.70
2019-04-04T21:51:54.721Z,30.80
2019-04-04T22:01:58.362Z,31.10
2019-04-04T22:12:01.932Z,31.20
2019-04-04T22:22:05.590Z,31.20
2019-04-04T22:32:09.737Z,31.40
2019-04-04T22:42:13.505Z,31.60
2019-04-04T22:52:17.063Z,31.80
2019-04-04T23:02:22.098Z,31.90
2019-04-04T23:12:25.523Z,32.00
2019-04-04T23:22:28.924Z,32.20
2019-04-04T23:32:32.125Z,32.40
2019-04-04T23:42:35.535Z,32.40
2019-04-04T23:52:39.885Z,32.50
